Airfield :
LOGIN :

Register | Disclaimer

   EN    FR    IT 

 










Legend :    VFR   Marginal VFR   IFR   Intensive IFR   Very Intensive IFR
Visi :
Ceiling :
>= 8 km
>= 3000ft
5 to 8 km
1000 to 3000 ft
1500m to 5 km
500 to 1000 ft
800 to 1500m
200 to 500 ft
< 800m
< 200 ft
Symbols :   Thunderstorms  Fog  Heavy snow  Heavy precipitations  Wind > 20 kt
SIGMETs :     Misc.  Thunderstorms  Icing  Turbulence  Mountain Waves  Volcanic Ashes






- Airport Elevation : 1682 ft
- IATA code : VIT


LEVT - Vitoria Gasteiz

CURRENT METAR :
  • 062230Z 30002KT 9999 FEW030 15/13 Q1029

EXPIRED METARs :
  • 062200Z 32004KT 280V360 9999 FEW028 15/13 Q1029
  • 062130Z 31003KT 230V040 9999 FEW028 15/13 Q1029
  • 062100Z VRB02KT 9999 FEW028 15/12 Q1028
  • 062030Z 34003KT 320V020 9999 FEW028 16/12 Q1028
  • 062000Z 02008KT 350V050 9999 FEW028 17/13 Q1027

TAF TAF LEVT
Valid from the 06 at 18:00 until the 07 at 18:00 UTC


061700Z 0618/0718 01012KT 9999 FEW020 SCT035 TX25/0713Z TN12/0705Z
BECMG 0619/0622 VRB06KT
PROB30
TEMPO 0702/0707 3000 BR BCFG
BECMG 0709/0711 03012KT



MET'MAP, your aeronautical weather chart ! - Copyright ORBIFLY December 2007 - Disclaimer

ORBIFLY MET'MAP TEAM :

Programming & Development : Alexandra Zaïnal
Original concept : Baudouin d'Aumeries
Technical & hardware support : Manuel Goepfert
Assistance : Marc-Olivier Méhu




SOURCES & CREDITS :

   NOAA